sensor_id;sensor_type;location;lat;lon;timestamp;P1;durP1;ratioP1;P2;durP2;ratioP2
18905;SDS011;9585;51.018;4.282;2023-04-25T00:02:07;6.28;;;3.30;;
18905;SDS011;9585;51.018;4.282;2023-04-25T00:04:34;5.68;;;3.17;;
18905;SDS011;9585;51.018;4.282;2023-04-25T00:07:03;6.55;;;3.30;;
18905;SDS011;9585;51.018;4.282;2023-04-25T00:09:31;7.20;;;3.38;;
18905;SDS011;9585;51.018;4.282;2023-04-25T00:11:59;6.25;;;3.53;;
18905;SDS011;9585;51.018;4.282;2023-04-25T00:14:28;8.55;;;3.63;;
18905;SDS011;9585;51.018;4.282;2023-04-25T00:16:58;5.93;;;3.63;;
18905;SDS011;9585;51.018;4.282;2023-04-25T00:19:26;7.95;;;3.17;;
18905;SDS011;9585;51.018;4.282;2023-04-25T00:21:53;9.82;;;3.75;;
18905;SDS011;9585;51.018;4.282;2023-04-25T00:24:21;8.95;;;3.85;;
18905;SDS011;9585;51.018;4.282;2023-04-25T00:26:48;6.82;;;3.70;;
18905;SDS011;9585;51.018;4.282;2023-04-25T00:29:16;7.93;;;3.70;;
18905;SDS011;9585;51.018;4.282;2023-04-25T00:31:45;6.75;;;3.65;;
18905;SDS011;9585;51.018;4.282;2023-04-25T00:34:12;6.75;;;3.45;;
18905;SDS011;9585;51.018;4.282;2023-04-25T00:36:40;9.15;;;3.70;;
18905;SDS011;9585;51.018;4.282;2023-04-25T00:39:07;9.02;;;3.67;;
18905;SDS011;9585;51.018;4.282;2023-04-25T00:41:35;8.40;;;3.80;;
18905;SDS011;9585;51.018;4.282;2023-04-25T00:44:03;7.63;;;3.35;;
18905;SDS011;9585;51.018;4.282;2023-04-25T00:46:32;11.20;;;4.00;;
18905;SDS011;9585;51.018;4.282;2023-04-25T00:49:01;10.65;;;4.15;;
18905;SDS011;9585;51.018;4.282;2023-04-25T00:51:29;14.10;;;4.22;;
18905;SDS011;9585;51.018;4.282;2023-04-25T00:53:59;12.25;;;4.15;;
18905;SDS011;9585;51.018;4.282;2023-04-25T00:56:26;11.05;;;4.20;;
18905;SDS011;9585;51.018;4.282;2023-04-25T00:58:54;9.70;;;3.70;;
18905;SDS011;9585;51.018;4.282;2023-04-25T01:01:23;12.27;;;3.92;;
18905;SDS011;9585;51.018;4.282;2023-04-25T01:03:51;13.75;;;4.18;;
18905;SDS011;9585;51.018;4.282;2023-04-25T01:06:22;10.15;;;3.72;;
18905;SDS011;9585;51.018;4.282;2023-04-25T01:08:49;10.07;;;3.97;;
18905;SDS011;9585;51.018;4.282;2023-04-25T01:11:18;10.80;;;3.75;;
18905;SDS011;9585;51.018;4.282;2023-04-25T01:13:45;11.63;;;3.75;;
18905;SDS011;9585;51.018;4.282;2023-04-25T01:16:13;10.93;;;3.72;;
18905;SDS011;9585;51.018;4.282;2023-04-25T01:18:40;13.27;;;3.78;;
18905;SDS011;9585;51.018;4.282;2023-04-25T01:21:10;11.27;;;3.80;;
18905;SDS011;9585;51.018;4.282;2023-04-25T01:23:40;12.85;;;3.85;;
18905;SDS011;9585;51.018;4.282;2023-04-25T01:26:08;11.52;;;3.92;;
18905;SDS011;9585;51.018;4.282;2023-04-25T01:28:38;10.98;;;3.53;;
18905;SDS011;9585;51.018;4.282;2023-04-25T01:31:06;13.10;;;4.35;;
18905;SDS011;9585;51.018;4.282;2023-04-25T01:33:34;11.70;;;3.70;;
18905;SDS011;9585;51.018;4.282;2023-04-25T01:36:01;9.35;;;3.55;;
18905;SDS011;9585;51.018;4.282;2023-04-25T01:38:31;10.60;;;3.70;;
18905;SDS011;9585;51.018;4.282;2023-04-25T01:40:58;11.43;;;3.33;;
18905;SDS011;9585;51.018;4.282;2023-04-25T01:43:26;9.27;;;3.92;;
18905;SDS011;9585;51.018;4.282;2023-04-25T01:45:53;9.00;;;3.60;;
18905;SDS011;9585;51.018;4.282;2023-04-25T01:48:22;9.15;;;3.15;;
18905;SDS011;9585;51.018;4.282;2023-04-25T01:50:49;10.70;;;3.50;;
18905;SDS011;9585;51.018;4.282;2023-04-25T01:53:17;10.38;;;3.30;;
18905;SDS011;9585;51.018;4.282;2023-04-25T01:55:46;8.20;;;3.53;;
18905;SDS011;9585;51.018;4.282;2023-04-25T01:58:13;8.70;;;3.40;;
18905;SDS011;9585;51.018;4.282;2023-04-25T02:00:40;8.05;;;3.22;;
18905;SDS011;9585;51.018;4.282;2023-04-25T02:03:08;9.73;;;3.60;;
18905;SDS011;9585;51.018;4.282;2023-04-25T02:05:36;9.82;;;3.65;;
18905;SDS011;9585;51.018;4.282;2023-04-25T02:08:04;9.13;;;3.10;;
18905;SDS011;9585;51.018;4.282;2023-04-25T02:10:32;15.20;;;3.80;;
18905;SDS011;9585;51.018;4.282;2023-04-25T02:13:02;10.60;;;3.33;;
18905;SDS011;9585;51.018;4.282;2023-04-25T02:15:30;12.65;;;3.70;;
18905;SDS011;9585;51.018;4.282;2023-04-25T02:17:58;9.20;;;3.63;;
18905;SDS011;9585;51.018;4.282;2023-04-25T02:20:27;12.82;;;3.55;;
18905;SDS011;9585;51.018;4.282;2023-04-25T02:22:55;13.98;;;3.78;;
18905;SDS011;9585;51.018;4.282;2023-04-25T02:25:22;10.15;;;3.70;;
18905;SDS011;9585;51.018;4.282;2023-04-25T02:27:50;10.02;;;3.80;;
18905;SDS011;9585;51.018;4.282;2023-04-25T02:30:19;9.98;;;3.15;;
18905;SDS011;9585;51.018;4.282;2023-04-25T02:32:47;14.07;;;3.92;;
18905;SDS011;9585;51.018;4.282;2023-04-25T02:35:14;10.80;;;3.45;;
18905;SDS011;9585;51.018;4.282;2023-04-25T02:37:42;9.95;;;3.47;;
18905;SDS011;9585;51.018;4.282;2023-04-25T02:40:10;13.23;;;3.80;;
18905;SDS011;9585;51.018;4.282;2023-04-25T02:42:38;7.55;;;2.85;;
18905;SDS011;9585;51.018;4.282;2023-04-25T02:45:06;11.00;;;3.65;;
18905;SDS011;9585;51.018;4.282;2023-04-25T02:47:35;17.73;;;4.00;;
18905;SDS011;9585;51.018;4.282;2023-04-25T02:50:03;12.77;;;3.47;;
18905;SDS011;9585;51.018;4.282;2023-04-25T02:52:35;13.90;;;3.42;;
18905;SDS011;9585;51.018;4.282;2023-04-25T02:55:02;11.23;;;3.38;;
18905;SDS011;9585;51.018;4.282;2023-04-25T02:57:30;11.30;;;4.10;;
18905;SDS011;9585;51.018;4.282;2023-04-25T02:59:58;11.43;;;3.63;;
18905;SDS011;9585;51.018;4.282;2023-04-25T03:02:25;11.48;;;3.92;;
18905;SDS011;9585;51.018;4.282;2023-04-25T03:04:54;11.55;;;3.72;;
18905;SDS011;9585;51.018;4.282;2023-04-25T03:07:22;14.20;;;3.90;;
18905;SDS011;9585;51.018;4.282;2023-04-25T03:09:49;8.85;;;3.38;;
18905;SDS011;9585;51.018;4.282;2023-04-25T03:12:16;12.77;;;3.88;;
18905;SDS011;9585;51.018;4.282;2023-04-25T03:14:44;12.77;;;3.53;;
18905;SDS011;9585;51.018;4.282;2023-04-25T03:17:11;9.35;;;2.97;;
18905;SDS011;9585;51.018;4.282;2023-04-25T03:19:38;11.95;;;3.60;;
18905;SDS011;9585;51.018;4.282;2023-04-25T03:22:07;10.82;;;3.45;;
18905;SDS011;9585;51.018;4.282;2023-04-25T03:24:35;12.75;;;3.22;;
18905;SDS011;9585;51.018;4.282;2023-04-25T03:27:06;8.25;;;3.20;;
18905;SDS011;9585;51.018;4.282;2023-04-25T03:29:33;12.32;;;3.22;;
18905;SDS011;9585;51.018;4.282;2023-04-25T03:32:00;11.23;;;3.63;;
18905;SDS011;9585;51.018;4.282;2023-04-25T03:34:28;11.63;;;3.53;;
18905;SDS011;9585;51.018;4.282;2023-04-25T03:36:55;10.82;;;3.03;;
18905;SDS011;9585;51.018;4.282;2023-04-25T03:39:24;8.75;;;3.30;;
18905;SDS011;9585;51.018;4.282;2023-04-25T03:41:52;8.85;;;3.45;;
18905;SDS011;9585;51.018;4.282;2023-04-25T03:44:20;10.75;;;3.28;;
18905;SDS011;9585;51.018;4.282;2023-04-25T03:46:47;14.13;;;4.10;;
18905;SDS011;9585;51.018;4.282;2023-04-25T03:49:14;13.02;;;3.45;;
18905;SDS011;9585;51.018;4.282;2023-04-25T03:51:42;12.30;;;3.45;;
18905;SDS011;9585;51.018;4.282;2023-04-25T03:54:09;10.38;;;2.90;;
18905;SDS011;9585;51.018;4.282;2023-04-25T03:56:38;10.15;;;3.47;;
18905;SDS011;9585;51.018;4.282;2023-04-25T03:59:06;10.88;;;3.25;;
18905;SDS011;9585;51.018;4.282;2023-04-25T04:01:34;10.82;;;3.72;;
18905;SDS011;9585;51.018;4.282;2023-04-25T04:04:01;17.80;;;3.72;;
18905;SDS011;9585;51.018;4.282;2023-04-25T04:06:29;13.70;;;3.72;;
18905;SDS011;9585;51.018;4.282;2023-04-25T04:08:56;12.30;;;4.00;;
18905;SDS011;9585;51.018;4.282;2023-04-25T04:11:23;10.43;;;3.60;;
18905;SDS011;9585;51.018;4.282;2023-04-25T04:13:52;13.18;;;4.20;;
18905;SDS011;9585;51.018;4.282;2023-04-25T04:16:20;14.90;;;4.18;;
18905;SDS011;9585;51.018;4.282;2023-04-25T04:18:47;12.55;;;3.30;;
18905;SDS011;9585;51.018;4.282;2023-04-25T04:21:15;8.45;;;3.20;;
18905;SDS011;9585;51.018;4.282;2023-04-25T04:23:42;13.45;;;3.35;;
18905;SDS011;9585;51.018;4.282;2023-04-25T04:26:09;8.13;;;3.22;;
18905;SDS011;9585;51.018;4.282;2023-04-25T04:28:38;9.40;;;3.00;;
18905;SDS011;9585;51.018;4.282;2023-04-25T04:31:07;7.50;;;3.20;;
18905;SDS011;9585;51.018;4.282;2023-04-25T04:33:35;7.75;;;2.38;;
18905;SDS011;9585;51.018;4.282;2023-04-25T04:36:03;9.63;;;3.08;;
18905;SDS011;9585;51.018;4.282;2023-04-25T04:38:32;6.65;;;2.47;;
18905;SDS011;9585;51.018;4.282;2023-04-25T04:41:01;7.07;;;2.53;;
18905;SDS011;9585;51.018;4.282;2023-04-25T04:43:28;6.40;;;2.10;;
18905;SDS011;9585;51.018;4.282;2023-04-25T04:45:57;6.43;;;2.30;;
18905;SDS011;9585;51.018;4.282;2023-04-25T04:48:28;5.63;;;2.30;;
18905;SDS011;9585;51.018;4.282;2023-04-25T04:50:57;5.18;;;2.25;;
18905;SDS011;9585;51.018;4.282;2023-04-25T04:53:25;5.70;;;2.35;;
18905;SDS011;9585;51.018;4.282;2023-04-25T04:55:53;6.60;;;2.45;;
18905;SDS011;9585;51.018;4.282;2023-04-25T04:58:21;6.25;;;2.70;;
18905;SDS011;9585;51.018;4.282;2023-04-25T05:00:49;7.53;;;2.58;;
18905;SDS011;9585;51.018;4.282;2023-04-25T05:03:17;3.83;;;2.05;;
18905;SDS011;9585;51.018;4.282;2023-04-25T05:05:46;7.10;;;2.45;;
18905;SDS011;9585;51.018;4.282;2023-04-25T05:08:13;6.13;;;2.70;;
18905;SDS011;9585;51.018;4.282;2023-04-25T05:10:40;8.18;;;2.38;;
18905;SDS011;9585;51.018;4.282;2023-04-25T05:13:08;7.30;;;2.55;;
18905;SDS011;9585;51.018;4.282;2023-04-25T05:15:35;4.47;;;2.58;;
18905;SDS011;9585;51.018;4.282;2023-04-25T05:18:03;7.30;;;2.72;;
18905;SDS011;9585;51.018;4.282;2023-04-25T05:20:30;10.77;;;3.25;;
18905;SDS011;9585;51.018;4.282;2023-04-25T05:22:59;6.57;;;2.45;;
18905;SDS011;9585;51.018;4.282;2023-04-25T05:25:27;8.63;;;2.90;;
18905;SDS011;9585;51.018;4.282;2023-04-25T05:27:54;7.18;;;2.70;;
18905;SDS011;9585;51.018;4.282;2023-04-25T05:30:22;8.27;;;2.90;;
18905;SDS011;9585;51.018;4.282;2023-04-25T05:32:49;3.95;;;2.28;;
18905;SDS011;9585;51.018;4.282;2023-04-25T05:35:17;6.30;;;2.80;;
18905;SDS011;9585;51.018;4.282;2023-04-25T05:37:47;6.20;;;2.72;;
18905;SDS011;9585;51.018;4.282;2023-04-25T05:40:16;6.82;;;2.97;;
18905;SDS011;9585;51.018;4.282;2023-04-25T05:42:44;6.38;;;2.67;;
18905;SDS011;9585;51.018;4.282;2023-04-25T05:45:12;7.28;;;2.58;;
18905;SDS011;9585;51.018;4.282;2023-04-25T05:47:39;10.25;;;2.97;;
18905;SDS011;9585;51.018;4.282;2023-04-25T05:50:07;6.32;;;2.97;;
18905;SDS011;9585;51.018;4.282;2023-04-25T05:52:35;5.78;;;2.55;;
18905;SDS011;9585;51.018;4.282;2023-04-25T05:55:03;8.40;;;3.00;;
18905;SDS011;9585;51.018;4.282;2023-04-25T05:57:33;6.32;;;2.90;;
18905;SDS011;9585;51.018;4.282;2023-04-25T06:00:00;9.05;;;3.03;;
18905;SDS011;9585;51.018;4.282;2023-04-25T06:02:29;8.88;;;3.08;;
18905;SDS011;9585;51.018;4.282;2023-04-25T06:04:57;8.68;;;3.08;;
18905;SDS011;9585;51.018;4.282;2023-04-25T06:07:24;10.77;;;3.33;;
18905;SDS011;9585;51.018;4.282;2023-04-25T06:09:52;10.65;;;3.53;;
18905;SDS011;9585;51.018;4.282;2023-04-25T06:12:19;13.55;;;3.88;;
18905;SDS011;9585;51.018;4.282;2023-04-25T06:14:48;11.30;;;3.30;;
18905;SDS011;9585;51.018;4.282;2023-04-25T06:17:15;8.40;;;2.97;;
18905;SDS011;9585;51.018;4.282;2023-04-25T06:19:43;9.07;;;3.28;;
18905;SDS011;9585;51.018;4.282;2023-04-25T06:22:10;10.05;;;3.40;;
18905;SDS011;9585;51.018;4.282;2023-04-25T06:24:37;7.32;;;2.95;;
18905;SDS011;9585;51.018;4.282;2023-04-25T06:27:04;7.97;;;3.38;;
18905;SDS011;9585;51.018;4.282;2023-04-25T06:29:32;11.15;;;2.70;;
18905;SDS011;9585;51.018;4.282;2023-04-25T06:32:01;8.60;;;2.40;;
18905;SDS011;9585;51.018;4.282;2023-04-25T06:34:28;9.20;;;2.80;;
18905;SDS011;9585;51.018;4.282;2023-04-25T06:36:55;9.95;;;2.70;;
18905;SDS011;9585;51.018;4.282;2023-04-25T06:39:23;8.80;;;2.53;;
18905;SDS011;9585;51.018;4.282;2023-04-25T06:41:51;7.80;;;2.92;;
18905;SDS011;9585;51.018;4.282;2023-04-25T06:44:18;7.70;;;2.40;;
18905;SDS011;9585;51.018;4.282;2023-04-25T06:46:48;9.13;;;2.60;;
18905;SDS011;9585;51.018;4.282;2023-04-25T06:49:17;6.68;;;2.40;;
18905;SDS011;9585;51.018;4.282;2023-04-25T06:51:44;6.45;;;2.35;;
18905;SDS011;9585;51.018;4.282;2023-04-25T06:54:12;8.10;;;2.20;;
18905;SDS011;9585;51.018;4.282;2023-04-25T06:56:39;4.72;;;2.10;;
18905;SDS011;9585;51.018;4.282;2023-04-25T06:59:07;6.53;;;2.13;;
18905;SDS011;9585;51.018;4.282;2023-04-25T07:01:34;5.65;;;2.28;;
18905;SDS011;9585;51.018;4.282;2023-04-25T07:04:01;4.95;;;1.98;;
18905;SDS011;9585;51.018;4.282;2023-04-25T07:06:31;5.85;;;1.98;;
18905;SDS011;9585;51.018;4.282;2023-04-25T07:08:59;6.72;;;2.30;;
18905;SDS011;9585;51.018;4.282;2023-04-25T07:11:27;8.90;;;2.55;;
18905;SDS011;9585;51.018;4.282;2023-04-25T07:13:54;7.00;;;2.33;;
18905;SDS011;9585;51.018;4.282;2023-04-25T07:16:22;9.73;;;2.22;;
18905;SDS011;9585;51.018;4.282;2023-04-25T07:18:49;8.57;;;2.35;;
18905;SDS011;9585;51.018;4.282;2023-04-25T07:21:16;6.97;;;2.28;;
18905;SDS011;9585;51.018;4.282;2023-04-25T07:23:45;7.25;;;2.63;;
18905;SDS011;9585;51.018;4.282;2023-04-25T07:26:14;4.75;;;2.10;;
18905;SDS011;9585;51.018;4.282;2023-04-25T07:28:42;5.22;;;1.90;;
18905;SDS011;9585;51.018;4.282;2023-04-25T07:31:09;6.15;;;1.88;;
18905;SDS011;9585;51.018;4.282;2023-04-25T07:33:36;7.53;;;1.90;;
18905;SDS011;9585;51.018;4.282;2023-04-25T07:36:05;6.05;;;2.20;;
18905;SDS011;9585;51.018;4.282;2023-04-25T07:38:33;7.07;;;2.25;;
18905;SDS011;9585;51.018;4.282;2023-04-25T07:41:05;7.55;;;2.35;;
18905;SDS011;9585;51.018;4.282;2023-04-25T07:43:32;5.10;;;2.20;;
18905;SDS011;9585;51.018;4.282;2023-04-25T07:45:59;8.23;;;1.98;;
18905;SDS011;9585;51.018;4.282;2023-04-25T07:48:27;6.95;;;2.65;;
18905;SDS011;9585;51.018;4.282;2023-04-25T07:50:55;6.32;;;1.90;;
18905;SDS011;9585;51.018;4.282;2023-04-25T07:53:22;6.63;;;1.70;;
18905;SDS011;9585;51.018;4.282;2023-04-25T07:55:50;4.57;;;1.60;;
18905;SDS011;9585;51.018;4.282;2023-04-25T07:58:18;5.25;;;1.63;;
18905;SDS011;9585;51.018;4.282;2023-04-25T08:00:47;5.97;;;1.83;;
18905;SDS011;9585;51.018;4.282;2023-04-25T08:03:15;5.88;;;1.73;;
18905;SDS011;9585;51.018;4.282;2023-04-25T08:05:42;7.45;;;1.88;;
18905;SDS011;9585;51.018;4.282;2023-04-25T08:08:10;6.57;;;2.13;;
18905;SDS011;9585;51.018;4.282;2023-04-25T08:10:38;3.20;;;1.40;;
18905;SDS011;9585;51.018;4.282;2023-04-25T08:13:05;4.47;;;1.65;;
18905;SDS011;9585;51.018;4.282;2023-04-25T08:15:34;5.38;;;1.73;;
18905;SDS011;9585;51.018;4.282;2023-04-25T08:18:01;5.40;;;1.30;;
18905;SDS011;9585;51.018;4.282;2023-04-25T08:20:28;5.68;;;2.17;;
18905;SDS011;9585;51.018;4.282;2023-04-25T08:22:55;3.80;;;1.75;;
18905;SDS011;9585;51.018;4.282;2023-04-25T08:25:23;3.33;;;1.48;;
18905;SDS011;9585;51.018;4.282;2023-04-25T08:27:50;4.55;;;1.60;;
18905;SDS011;9585;51.018;4.282;2023-04-25T08:30:17;6.25;;;2.80;;
18905;SDS011;9585;51.018;4.282;2023-04-25T08:32:48;5.30;;;1.50;;
18905;SDS011;9585;51.018;4.282;2023-04-25T08:35:22;4.57;;;1.40;;
18905;SDS011;9585;51.018;4.282;2023-04-25T08:37:50;4.28;;;2.60;;
18905;SDS011;9585;51.018;4.282;2023-04-25T08:40:18;5.88;;;1.95;;
18905;SDS011;9585;51.018;4.282;2023-04-25T08:42:53;4.95;;;1.30;;
18905;SDS011;9585;51.018;4.282;2023-04-25T08:45:22;3.00;;;1.20;;
18905;SDS011;9585;51.018;4.282;2023-04-25T08:47:52;5.60;;;1.20;;
18905;SDS011;9585;51.018;4.282;2023-04-25T08:50:22;5.07;;;1.40;;
18905;SDS011;9585;51.018;4.282;2023-04-25T08:52:51;6.95;;;1.27;;
18905;SDS011;9585;51.018;4.282;2023-04-25T08:55:21;4.93;;;1.50;;
18905;SDS011;9585;51.018;4.282;2023-04-25T08:57:49;4.53;;;1.40;;
18905;SDS011;9585;51.018;4.282;2023-04-25T09:00:20;6.30;;;1.42;;
18905;SDS011;9585;51.018;4.282;2023-04-25T09:02:49;4.07;;;1.55;;
18905;SDS011;9585;51.018;4.282;2023-04-25T09:05:19;4.00;;;1.48;;
18905;SDS011;9585;51.018;4.282;2023-04-25T09:07:50;4.22;;;1.40;;
18905;SDS011;9585;51.018;4.282;2023-04-25T09:10:17;2.92;;;1.10;;
18905;SDS011;9585;51.018;4.282;2023-04-25T09:12:45;3.03;;;1.13;;
18905;SDS011;9585;51.018;4.282;2023-04-25T09:15:32;5.90;;;1.30;;
18905;SDS011;9585;51.018;4.282;2023-04-25T09:18:01;5.03;;;1.52;;
18905;SDS011;9585;51.018;4.282;2023-04-25T09:20:32;3.75;;;1.30;;
18905;SDS011;9585;51.018;4.282;2023-04-25T09:23:07;5.47;;;1.40;;
18905;SDS011;9585;51.018;4.282;2023-04-25T09:25:35;3.67;;;1.30;;
18905;SDS011;9585;51.018;4.282;2023-04-25T09:28:04;5.63;;;1.35;;
18905;SDS011;9585;51.018;4.282;2023-04-25T09:30:33;3.25;;;1.27;;
18905;SDS011;9585;51.018;4.282;2023-04-25T09:33:06;3.95;;;1.70;;
18905;SDS011;9585;51.018;4.282;2023-04-25T09:35:37;4.53;;;1.15;;
18905;SDS011;9585;51.018;4.282;2023-04-25T09:38:09;6.80;;;1.20;;
18905;SDS011;9585;51.018;4.282;2023-04-25T09:40:40;6.35;;;1.30;;
18905;SDS011;9585;51.018;4.282;2023-04-25T09:43:09;4.30;;;1.10;;
18905;SDS011;9585;51.018;4.282;2023-04-25T09:45:41;2.50;;;0.80;;
18905;SDS011;9585;51.018;4.282;2023-04-25T09:48:16;3.10;;;0.95;;
18905;SDS011;9585;51.018;4.282;2023-04-25T09:50:45;4.38;;;1.05;;
18905;SDS011;9585;51.018;4.282;2023-04-25T09:53:30;4.50;;;1.05;;
18905;SDS011;9585;51.018;4.282;2023-04-25T09:55:58;4.80;;;1.17;;
18905;SDS011;9585;51.018;4.282;2023-04-25T09:58:27;2.08;;;0.90;;
18905;SDS011;9585;51.018;4.282;2023-04-25T10:00:58;3.95;;;1.13;;
18905;SDS011;9585;51.018;4.282;2023-04-25T10:03:29;3.67;;;1.02;;
18905;SDS011;9585;51.018;4.282;2023-04-25T10:05:59;3.22;;;1.02;;
18905;SDS011;9585;51.018;4.282;2023-04-25T10:08:29;5.63;;;1.20;;
18905;SDS011;9585;51.018;4.282;2023-04-25T10:11:00;3.30;;;1.20;;
18905;SDS011;9585;51.018;4.282;2023-04-25T10:13:28;6.43;;;1.40;;
18905;SDS011;9585;51.018;4.282;2023-04-25T10:15:57;3.35;;;1.08;;
18905;SDS011;9585;51.018;4.282;2023-04-25T10:18:26;4.25;;;1.20;;
18905;SDS011;9585;51.018;4.282;2023-04-25T10:20:55;4.28;;;1.20;;
18905;SDS011;9585;51.018;4.282;2023-04-25T10:23:25;4.97;;;1.38;;
18905;SDS011;9585;51.018;4.282;2023-04-25T10:25:53;4.78;;;1.30;;
18905;SDS011;9585;51.018;4.282;2023-04-25T10:28:20;5.15;;;1.15;;
18905;SDS011;9585;51.018;4.282;2023-04-25T10:30:58;3.95;;;1.30;;
18905;SDS011;9585;51.018;4.282;2023-04-25T10:33:35;4.82;;;1.20;;
18905;SDS011;9585;51.018;4.282;2023-04-25T10:36:12;4.50;;;1.13;;
18905;SDS011;9585;51.018;4.282;2023-04-25T10:38:41;4.95;;;1.30;;
18905;SDS011;9585;51.018;4.282;2023-04-25T10:41:11;4.45;;;1.50;;
18905;SDS011;9585;51.018;4.282;2023-04-25T10:43:39;6.78;;;1.65;;
18905;SDS011;9585;51.018;4.282;2023-04-25T10:46:17;4.97;;;1.60;;
18905;SDS011;9585;51.018;4.282;2023-04-25T10:48:48;3.88;;;1.38;;
18905;SDS011;9585;51.018;4.282;2023-04-25T10:51:19;5.85;;;1.52;;
18905;SDS011;9585;51.018;4.282;2023-04-25T10:53:59;6.22;;;1.52;;
18905;SDS011;9585;51.018;4.282;2023-04-25T10:56:28;7.68;;;1.42;;
18905;SDS011;9585;51.018;4.282;2023-04-25T10:59:04;2.83;;;1.38;;
18905;SDS011;9585;51.018;4.282;2023-04-25T11:01:35;5.97;;;1.65;;
18905;SDS011;9585;51.018;4.282;2023-04-25T11:04:04;3.50;;;1.55;;
18905;SDS011;9585;51.018;4.282;2023-04-25T11:06:37;3.92;;;1.40;;
18905;SDS011;9585;51.018;4.282;2023-04-25T11:09:13;2.88;;;1.33;;
18905;SDS011;9585;51.018;4.282;2023-04-25T11:11:53;6.80;;;1.65;;
18905;SDS011;9585;51.018;4.282;2023-04-25T11:14:21;4.70;;;1.70;;
18905;SDS011;9585;51.018;4.282;2023-04-25T11:16:52;3.00;;;1.25;;
18905;SDS011;9585;51.018;4.282;2023-04-25T11:19:23;4.00;;;1.10;;
18905;SDS011;9585;51.018;4.282;2023-04-25T11:21:55;2.53;;;1.10;;
18905;SDS011;9585;51.018;4.282;2023-04-25T11:24:25;2.63;;;1.02;;
18905;SDS011;9585;51.018;4.282;2023-04-25T11:26:56;4.82;;;1.08;;
18905;SDS011;9585;51.018;4.282;2023-04-25T11:29:26;3.95;;;1.45;;
18905;SDS011;9585;51.018;4.282;2023-04-25T11:32:13;2.97;;;0.98;;
18905;SDS011;9585;51.018;4.282;2023-04-25T11:34:43;3.05;;;0.95;;
18905;SDS011;9585;51.018;4.282;2023-04-25T11:37:11;2.22;;;1.00;;
18905;SDS011;9585;51.018;4.282;2023-04-25T11:39:42;3.33;;;1.02;;
18905;SDS011;9585;51.018;4.282;2023-04-25T11:42:11;2.63;;;0.80;;
18905;SDS011;9585;51.018;4.282;2023-04-25T11:44:39;2.03;;;0.80;;
18905;SDS011;9585;51.018;4.282;2023-04-25T11:47:06;3.28;;;0.82;;
18905;SDS011;9585;51.018;4.282;2023-04-25T11:49:38;3.20;;;0.93;;
18905;SDS011;9585;51.018;4.282;2023-04-25T11:52:40;2.40;;;0.80;;
18905;SDS011;9585;51.018;4.282;2023-04-25T11:55:13;2.08;;;0.65;;
18905;SDS011;9585;51.018;4.282;2023-04-25T11:57:41;1.83;;;0.90;;
18905;SDS011;9585;51.018;4.282;2023-04-25T12:00:11;1.83;;;0.88;;
18905;SDS011;9585;51.018;4.282;2023-04-25T12:02:41;3.17;;;0.80;;
18905;SDS011;9585;51.018;4.282;2023-04-25T12:05:12;2.17;;;0.77;;
18905;SDS011;9585;51.018;4.282;2023-04-25T12:07:43;3.53;;;0.90;;
18905;SDS011;9585;51.018;4.282;2023-04-25T12:10:11;1.73;;;0.80;;
18905;SDS011;9585;51.018;4.282;2023-04-25T12:12:41;2.45;;;0.70;;
18905;SDS011;9585;51.018;4.282;2023-04-25T12:15:09;3.38;;;0.90;;
18905;SDS011;9585;51.018;4.282;2023-04-25T12:17:40;4.40;;;1.10;;
18905;SDS011;9585;51.018;4.282;2023-04-25T12:20:09;4.57;;;1.23;;
18905;SDS011;9585;51.018;4.282;2023-04-25T12:22:40;3.05;;;0.95;;
18905;SDS011;9585;51.018;4.282;2023-04-25T12:25:11;2.70;;;1.02;;
18905;SDS011;9585;51.018;4.282;2023-04-25T12:27:39;3.40;;;0.93;;
18905;SDS011;9585;51.018;4.282;2023-04-25T12:30:09;3.50;;;1.17;;
18905;SDS011;9585;51.018;4.282;2023-04-25T12:32:37;4.53;;;1.15;;
18905;SDS011;9585;51.018;4.282;2023-04-25T12:35:05;2.05;;;1.13;;
18905;SDS011;9585;51.018;4.282;2023-04-25T12:37:33;3.55;;;1.00;;
18905;SDS011;9585;51.018;4.282;2023-04-25T12:40:02;2.70;;;0.90;;
18905;SDS011;9585;51.018;4.282;2023-04-25T12:42:31;3.63;;;1.10;;
18905;SDS011;9585;51.018;4.282;2023-04-25T12:44:58;1.58;;;0.85;;
18905;SDS011;9585;51.018;4.282;2023-04-25T12:47:26;2.55;;;0.93;;
18905;SDS011;9585;51.018;4.282;2023-04-25T12:49:53;2.53;;;0.90;;
18905;SDS011;9585;51.018;4.282;2023-04-25T12:52:20;1.35;;;0.90;;
18905;SDS011;9585;51.018;4.282;2023-04-25T12:54:47;2.63;;;0.80;;
18905;SDS011;9585;51.018;4.282;2023-04-25T12:57:16;4.47;;;1.15;;
18905;SDS011;9585;51.018;4.282;2023-04-25T12:59:43;2.30;;;0.80;;
18905;SDS011;9585;51.018;4.282;2023-04-25T13:02:11;3.63;;;0.93;;
18905;SDS011;9585;51.018;4.282;2023-04-25T13:04:38;4.65;;;1.20;;
18905;SDS011;9585;51.018;4.282;2023-04-25T13:07:05;6.50;;;1.40;;
18905;SDS011;9585;51.018;4.282;2023-04-25T13:09:32;4.15;;;1.20;;
18905;SDS011;9585;51.018;4.282;2023-04-25T13:12:00;2.78;;;0.90;;
18905;SDS011;9585;51.018;4.282;2023-04-25T13:14:29;3.20;;;0.90;;
18905;SDS011;9585;51.018;4.282;2023-04-25T13:16:56;2.80;;;1.00;;
18905;SDS011;9585;51.018;4.282;2023-04-25T13:19:23;2.63;;;0.80;;
18905;SDS011;9585;51.018;4.282;2023-04-25T13:21:51;2.42;;;0.82;;
18905;SDS011;9585;51.018;4.282;2023-04-25T13:24:18;3.05;;;1.00;;
18905;SDS011;9585;51.018;4.282;2023-04-25T13:26:45;2.30;;;0.80;;
18905;SDS011;9585;51.018;4.282;2023-04-25T13:29:13;3.95;;;1.05;;
18905;SDS011;9585;51.018;4.282;2023-04-25T13:31:41;2.83;;;0.88;;
18905;SDS011;9585;51.018;4.282;2023-04-25T13:34:09;4.78;;;1.40;;
18905;SDS011;9585;51.018;4.282;2023-04-25T13:36:37;4.18;;;0.90;;
18905;SDS011;9585;51.018;4.282;2023-04-25T13:39:04;4.03;;;1.05;;
18905;SDS011;9585;51.018;4.282;2023-04-25T13:41:32;3.50;;;0.82;;
18905;SDS011;9585;51.018;4.282;2023-04-25T13:43:59;2.17;;;0.80;;
18905;SDS011;9585;51.018;4.282;2023-04-25T13:46:27;3.97;;;0.80;;
18905;SDS011;9585;51.018;4.282;2023-04-25T13:48:55;3.50;;;1.10;;
18905;SDS011;9585;51.018;4.282;2023-04-25T13:51:26;2.20;;;0.80;;
18905;SDS011;9585;51.018;4.282;2023-04-25T13:53:53;4.35;;;1.23;;
18905;SDS011;9585;51.018;4.282;2023-04-25T13:56:20;2.95;;;0.88;;
18905;SDS011;9585;51.018;4.282;2023-04-25T13:58:48;3.40;;;1.00;;
18905;SDS011;9585;51.018;4.282;2023-04-25T14:01:16;2.15;;;0.80;;
18905;SDS011;9585;51.018;4.282;2023-04-25T14:03:46;4.07;;;0.98;;
18905;SDS011;9585;51.018;4.282;2023-04-25T14:06:15;4.00;;;1.00;;
18905;SDS011;9585;51.018;4.282;2023-04-25T14:08:47;2.85;;;1.10;;
18905;SDS011;9585;51.018;4.282;2023-04-25T14:11:15;4.43;;;0.90;;
18905;SDS011;9585;51.018;4.282;2023-04-25T14:13:43;3.67;;;1.13;;
18905;SDS011;9585;51.018;4.282;2023-04-25T14:16:10;2.50;;;0.90;;
18905;SDS011;9585;51.018;4.282;2023-04-25T14:18:38;3.55;;;1.33;;
18905;SDS011;9585;51.018;4.282;2023-04-25T14:21:05;3.28;;;1.20;;
18905;SDS011;9585;51.018;4.282;2023-04-25T14:23:34;2.60;;;0.82;;
18905;SDS011;9585;51.018;4.282;2023-04-25T14:26:01;2.65;;;0.98;;
18905;SDS011;9585;51.018;4.282;2023-04-25T14:28:29;2.50;;;0.90;;
18905;SDS011;9585;51.018;4.282;2023-04-25T14:30:56;3.55;;;0.93;;
18905;SDS011;9585;51.018;4.282;2023-04-25T14:33:23;2.28;;;0.77;;
18905;SDS011;9585;51.018;4.282;2023-04-25T14:35:50;5.47;;;1.10;;
18905;SDS011;9585;51.018;4.282;2023-04-25T14:38:18;2.33;;;0.90;;
18905;SDS011;9585;51.018;4.282;2023-04-25T14:40:49;3.20;;;0.90;;
18905;SDS011;9585;51.018;4.282;2023-04-25T14:43:17;4.18;;;1.08;;
18905;SDS011;9585;51.018;4.282;2023-04-25T14:45:44;2.70;;;0.95;;
18905;SDS011;9585;51.018;4.282;2023-04-25T14:48:12;3.45;;;0.90;;
18905;SDS011;9585;51.018;4.282;2023-04-25T14:50:40;5.22;;;0.85;;
18905;SDS011;9585;51.018;4.282;2023-04-25T14:53:07;4.10;;;0.93;;
18905;SDS011;9585;51.018;4.282;2023-04-25T14:55:34;2.38;;;0.93;;
18905;SDS011;9585;51.018;4.282;2023-04-25T14:58:03;3.00;;;0.82;;
18905;SDS011;9585;51.018;4.282;2023-04-25T15:00:30;3.63;;;1.27;;
18905;SDS011;9585;51.018;4.282;2023-04-25T15:02:58;1.58;;;0.80;;
18905;SDS011;9585;51.018;4.282;2023-04-25T15:05:25;2.72;;;0.77;;
18905;SDS011;9585;51.018;4.282;2023-04-25T15:07:52;3.58;;;0.90;;